createdAt,value
2022-11-08T00:04:02.862Z,17.58
2022-11-08T00:09:29.496Z,17.40
2022-11-08T00:14:37.396Z,22.25
2022-11-08T00:19:45.674Z,20.83
2022-11-08T00:24:55.474Z,17.90
2022-11-08T00:30:03.591Z,17.27
2022-11-08T00:35:11.204Z,16.98
2022-11-08T00:40:19.287Z,15.93
2022-11-08T00:45:25.947Z,13.57
2022-11-08T00:50:32.208Z,16.15
2022-11-08T00:55:39.934Z,13.18
2022-11-08T01:00:46.522Z,16.77
2022-11-08T01:05:55.542Z,14.55
2022-11-08T01:11:06.618Z,15.55
2022-11-08T01:16:16.357Z,17.60
2022-11-08T01:21:23.468Z,11.00
2022-11-08T01:26:32.097Z,13.52
2022-11-08T01:31:38.305Z,13.05
2022-11-08T01:36:45.194Z,13.60
2022-11-08T01:41:53.179Z,15.88
2022-11-08T01:46:59.415Z,14.55
2022-11-08T01:52:24.638Z,16.15
2022-11-08T01:57:38.277Z,18.52
2022-11-08T02:02:47.461Z,12.88
2022-11-08T02:13:05.881Z,10.32
2022-11-08T02:18:16.111Z,13.90
2022-11-08T02:23:28.861Z,16.38
2022-11-08T02:28:42.237Z,13.68
2022-11-08T02:33:49.549Z,14.30
2022-11-08T02:38:59.408Z,19.00
2022-11-08T02:44:07.116Z,11.70
2022-11-08T02:49:13.184Z,12.55
2022-11-08T02:54:19.228Z,13.80
2022-11-08T02:59:26.658Z,16.67
2022-11-08T03:04:32.878Z,11.10
2022-11-08T03:09:39.028Z,13.73
2022-11-08T03:14:46.782Z,14.55
2022-11-08T03:19:53.998Z,16.02
2022-11-08T03:25:00.128Z,17.88
2022-11-08T03:30:09.933Z,14.13
2022-11-08T03:35:16.532Z,11.73
2022-11-08T03:40:23.124Z,10.20
2022-11-08T03:45:30.636Z,15.63
2022-11-08T03:50:37.003Z,15.93
2022-11-08T03:55:43.258Z,11.15
2022-11-08T04:00:50.962Z,15.35
2022-11-08T04:06:01.076Z,12.98
2022-11-08T04:11:21.248Z,10.93
2022-11-08T04:16:28.932Z,14.82
2022-11-08T04:21:35.060Z,15.25
2022-11-08T04:26:42.203Z,15.80
2022-11-08T04:31:49.684Z,12.35
2022-11-08T04:36:55.913Z,11.00
2022-11-08T04:42:02.595Z,11.35
2022-11-08T04:47:10.506Z,10.88
2022-11-08T04:52:18.363Z,10.38
2022-11-08T04:57:24.380Z,8.75
2022-11-08T05:02:32.198Z,9.07
2022-11-08T05:07:38.828Z,11.45
2022-11-08T05:12:45.067Z,9.25
2022-11-08T05:17:53.080Z,14.55
2022-11-08T05:23:20.659Z,9.05
2022-11-08T05:28:26.795Z,11.90
2022-11-08T05:33:34.555Z,14.57
2022-11-08T05:38:42.472Z,10.55
2022-11-08T05:43:51.967Z,11.57
2022-11-08T05:48:59.564Z,10.13
2022-11-08T05:54:05.967Z,9.13
2022-11-08T05:59:12.365Z,9.55
2022-11-08T06:04:20.100Z,12.70
2022-11-08T06:09:26.532Z,12.05
2022-11-08T06:14:32.822Z,14.43
2022-11-08T06:19:40.546Z,14.10
2022-11-08T06:24:46.808Z,11.63
2022-11-08T06:29:52.979Z,11.82
2022-11-08T06:35:00.669Z,13.57
2022-11-08T06:40:08.314Z,9.30
2022-11-08T06:45:14.784Z,12.48
2022-11-08T06:50:22.474Z,14.43
2022-11-08T06:55:28.887Z,11.88
2022-11-08T07:00:35.148Z,12.15
2022-11-08T07:05:42.626Z,12.88
2022-11-08T07:10:48.939Z,13.00
2022-11-08T07:15:58.243Z,10.70
2022-11-08T07:21:06.103Z,18.75
2022-11-08T07:26:13.494Z,15.90
2022-11-08T07:31:19.521Z,11.85
2022-11-08T07:36:27.260Z,14.95
2022-11-08T07:41:33.315Z,11.07
2022-11-08T07:46:39.429Z,14.10
2022-11-08T07:51:47.027Z,12.68
2022-11-08T07:56:55.544Z,11.20
2022-11-08T08:02:26.462Z,14.02
2022-11-08T08:07:59.337Z,15.07
2022-11-08T08:13:06.800Z,12.32
2022-11-08T08:18:41.326Z,10.70
2022-11-08T08:24:13.488Z,14.57
2022-11-08T08:29:37.771Z,11.95
2022-11-08T08:34:56.059Z,10.53
2022-11-08T08:40:19.038Z,10.32
2022-11-08T08:45:37.497Z,11.80
2022-11-08T08:50:44.403Z,8.85
2022-11-08T08:56:13.053Z,12.18
2022-11-08T09:01:41.465Z,11.60
2022-11-08T09:06:47.808Z,12.52
2022-11-08T09:11:57.957Z,13.07
2022-11-08T09:17:04.131Z,9.18
2022-11-08T09:22:10.444Z,13.32
2022-11-08T09:27:18.272Z,9.43
2022-11-08T09:32:46.357Z,7.45
2022-11-08T09:37:53.990Z,8.55
2022-11-08T09:43:27.862Z,8.68
2022-11-08T09:48:38.489Z,7.35
2022-11-08T09:53:51.987Z,10.95
2022-11-08T09:59:04.192Z,8.18
2022-11-08T10:04:17.704Z,10.07
2022-11-08T10:09:49.052Z,11.10
2022-11-08T10:15:17.221Z,9.63
2022-11-08T10:20:39.235Z,8.52
2022-11-08T10:25:50.159Z,7.80
2022-11-08T10:30:58.305Z,9.68
2022-11-08T10:36:11.801Z,9.40
2022-11-08T10:41:23.689Z,6.88
2022-11-08T10:46:42.136Z,11.88
2022-11-08T10:51:51.898Z,9.00
2022-11-08T10:56:58.117Z,9.15
2022-11-08T11:02:17.766Z,5.53
2022-11-08T11:07:34.159Z,6.28
2022-11-08T11:12:40.525Z,8.52
2022-11-08T11:17:48.851Z,8.20
2022-11-08T11:22:55.744Z,5.87
2022-11-08T11:28:02.921Z,5.80
2022-11-08T11:33:26.308Z,6.10
2022-11-08T11:38:45.717Z,8.82
2022-11-08T11:44:06.506Z,4.68
2022-11-08T11:49:22.942Z,11.25
2022-11-08T11:54:32.836Z,4.93
2022-11-08T12:00:02.453Z,5.40
2022-11-08T12:05:40.148Z,10.02
2022-11-08T12:11:18.362Z,6.95
2022-11-08T12:16:35.049Z,6.82
2022-11-08T12:21:51.913Z,5.00
2022-11-08T12:27:08.827Z,7.93
2022-11-08T12:32:42.944Z,7.80
2022-11-08T12:38:09.035Z,6.05
2022-11-08T12:43:31.638Z,4.97
2022-11-08T12:49:07.594Z,6.20
2022-11-08T12:54:30.635Z,5.00
2022-11-08T12:59:42.830Z,9.18
2022-11-08T13:05:03.493Z,5.18
2022-11-08T13:10:24.568Z,6.63
2022-11-08T13:15:30.988Z,7.97
2022-11-08T13:20:45.080Z,4.68
2022-11-08T13:25:55.087Z,5.85
2022-11-08T13:31:11.391Z,10.82
2022-11-08T13:36:34.924Z,9.98
2022-11-08T13:42:04.988Z,8.00
2022-11-08T13:47:53.713Z,6.35
2022-11-08T13:53:10.564Z,8.15
2022-11-08T13:58:37.621Z,7.88
2022-11-08T14:04:25.425Z,7.15
2022-11-08T14:09:44.864Z,7.47
2022-11-08T14:15:05.517Z,10.05
2022-11-08T14:20:35.335Z,6.50
2022-11-08T14:25:42.609Z,6.80
2022-11-08T14:30:51.862Z,7.53
2022-11-08T14:36:01.775Z,7.30
2022-11-08T14:41:09.077Z,9.82
2022-11-08T14:46:30.636Z,10.65
2022-11-08T14:51:37.678Z,8.88
2022-11-08T14:56:46.133Z,9.40
2022-11-08T15:01:54.398Z,13.63
2022-11-08T15:07:02.166Z,9.93
2022-11-08T15:12:16.996Z,11.35
2022-11-08T15:17:37.480Z,12.60
2022-11-08T15:22:47.097Z,12.18
2022-11-08T15:27:57.451Z,11.68
2022-11-08T15:33:06.315Z,12.38
2022-11-08T15:38:31.375Z,8.70
2022-11-08T15:43:43.265Z,10.02
2022-11-08T15:49:00.811Z,8.98
2022-11-08T15:54:08.987Z,9.00
2022-11-08T15:59:21.657Z,13.48
2022-11-08T16:04:31.051Z,11.63
2022-11-08T16:09:39.047Z,16.58
2022-11-08T16:14:48.267Z,14.55
2022-11-08T16:25:06.026Z,18.77
2022-11-08T16:30:18.738Z,20.65
2022-11-08T16:35:28.372Z,20.83
2022-11-08T16:40:35.640Z,24.55
2022-11-08T16:46:04.370Z,21.13
2022-11-08T16:51:20.199Z,18.75
2022-11-08T16:56:27.485Z,16.92
2022-11-08T17:01:37.987Z,15.82
2022-11-08T17:06:46.602Z,19.15
2022-11-08T17:11:54.932Z,28.30
2022-11-08T17:17:02.435Z,37.28
2022-11-08T17:22:11.855Z,34.85
2022-11-08T17:27:20.943Z,43.22
2022-11-08T17:32:27.718Z,38.28
2022-11-08T17:37:37.303Z,37.25
2022-11-08T17:42:45.644Z,45.33
2022-11-08T17:47:52.775Z,35.38
2022-11-08T17:53:01.933Z,37.88
2022-11-08T17:58:08.843Z,38.50
2022-11-08T18:03:20.720Z,31.95
2022-11-08T18:08:32.171Z,31.17
2022-11-08T18:13:40.384Z,27.88
2022-11-08T18:18:48.949Z,32.17
2022-11-08T18:24:00.451Z,27.73
2022-11-08T18:29:09.181Z,22.95
2022-11-08T18:34:16.453Z,25.83
2022-11-08T18:39:25.497Z,23.20
2022-11-08T18:49:40.669Z,20.10
2022-11-08T18:54:49.592Z,22.08
2022-11-08T19:00:01.229Z,18.00
2022-11-08T19:05:12.269Z,18.27
2022-11-08T19:10:23.350Z,18.42
2022-11-08T19:15:30.290Z,14.05
2022-11-08T19:20:38.329Z,19.08
2022-11-08T19:25:55.257Z,14.73
2022-11-08T19:36:18.273Z,20.80
2022-11-08T19:41:30.596Z,19.42
2022-11-08T19:46:39.826Z,21.83
2022-11-08T19:51:47.830Z,22.88
2022-11-08T19:57:05.233Z,23.52
2022-11-08T20:02:13.980Z,19.98
2022-11-08T20:07:21.370Z,40.17
2022-11-08T20:12:33.469Z,20.77
2022-11-08T20:17:40.463Z,21.83
2022-11-08T20:22:49.186Z,21.83
2022-11-08T20:27:59.143Z,21.30
2022-11-08T20:33:13.769Z,17.73
2022-11-08T20:38:21.387Z,23.63
2022-11-08T20:43:30.907Z,19.17
2022-11-08T20:48:42.788Z,17.67
2022-11-08T20:53:51.273Z,17.67
2022-11-08T20:59:00.204Z,17.90
2022-11-08T21:04:09.381Z,18.23
2022-11-08T21:09:49.853Z,16.55
2022-11-08T21:14:52.633Z,16.05
2022-11-08T21:19:59.896Z,16.52
2022-11-08T21:25:08.351Z,16.53
2022-11-08T21:30:18.187Z,13.30
2022-11-08T21:35:25.847Z,15.55
2022-11-08T21:40:33.034Z,13.88
2022-11-08T21:45:41.899Z,16.55
2022-11-08T21:50:48.917Z,16.08
2022-11-08T21:55:59.586Z,20.83
2022-11-08T22:01:11.318Z,13.10
2022-11-08T22:06:18.266Z,19.80
2022-11-08T22:11:25.067Z,17.52
2022-11-08T22:16:32.701Z,17.52
2022-11-08T22:21:43.570Z,14.05
2022-11-08T22:26:51.107Z,14.38
2022-11-08T22:31:59.324Z,14.32
2022-11-08T22:37:05.524Z,15.83
2022-11-08T22:42:11.838Z,15.10
2022-11-08T22:47:19.560Z,19.42
2022-11-08T22:52:25.930Z,17.15
2022-11-08T22:57:32.356Z,17.92
2022-11-08T23:02:39.993Z,15.20
2022-11-08T23:07:46.333Z,15.82
2022-11-08T23:13:22.012Z,14.27
2022-11-08T23:18:30.043Z,21.48
2022-11-08T23:23:54.165Z,14.43
2022-11-08T23:29:17.642Z,16.70
2022-11-08T23:34:25.368Z,16.10
2022-11-08T23:39:31.645Z,19.35
2022-11-08T23:44:37.787Z,16.90
2022-11-08T23:49:45.098Z,16.33
2022-11-08T23:54:51.123Z,16.27
2022-11-08T23:59:57.498Z,14.40
